"WATCHING THE WEATHER TO PROTECT LIFE AND PROPERTY"


Aviation
Satellite (InfraRed)


KFLL 160853Z 15004KT 10SM FEW030 SCT250 28/24 A3003 RMK AO2 SLP170 T02780244 55008
KMCO 160853Z 00000KT 10SM FEW110 SCT250 24/24 A3004 RMK AO2 SLP171 T02440239 55012
KMIA 160853Z 19003KT 10SM FEW030 FEW075 SCT250 27/22 A3004 RMK AO2 SLP171 T02720222 56010 $
KTPA 160853Z 00000KT 10SM BKN120 27/24 A3003 RMK AO2 SLP169 60008 T02720244 58008
MDPP 160900Z 00000KT 9999 FEW016 24/23 Q1017
MDSD 160900Z 04004KT 9999 FEW018 SCT300 24/23 Q1016 NOSIG
MKJS 160900Z 09003KT 9999 FEW022 27/22 Q1015
MTPP 152300Z 31009KT 9000 SCT027CB BKN250 32/24 Q1013 A2993 RMK
MUHA 160855Z 00000KT 9000 SKC 22/22 Q1017
MYNN 160900Z VRB02KT 9999 SCT020 27/22 A3007
TAPA 160900Z 12010KT 9999 -SHRA SCT016 26/23 Q1017 NOSIG
TFFF 160930Z AUTO 10005KT 9999 FEW018/// SCT041/// BKN054/// 25/24 Q1017 TEMPO 4000 SHRA BKN018TCU
TFFR 160930Z AUTO 10003KT 080V140 9999 3400 FEW017/// SCT045/// BKN054/// ///TCU 25/24 Q1017 TEMPO 4000 SHRA
TIST 160853Z AUTO 11009KT 10SM CLR 27/24 A3004 RMK AO2 SLP171 T02720239 55003
TISX 160853Z AUTO 08014G18KT 10SM SCT017 SCT024 27/25 A3004 RMK AO2 SLP169 T02720250 56002
TJSJ 160856Z 10006KT 10SM SCT023 SCT034 26/25 A3004 RMK AO2 RAE0758 SLP171 P0000 60000 T02610250 55001 $
TKPK 160100Z 080111KT 9999 SCT018 27/24 Q1018
TNCA 160900Z 11010KT 9999 FEW017 26/24 Q1013 NOSIG
TNCB 160855Z AUTO 10013KT //// // FEW018/// 27/24 Q1014 RE//
TNCC 160900Z AUTO 12009KT 9999 SCT019 27/23 Q1014 NOSIG
TNCE 160855Z AUTO 07012KT 040V100 //// // ///////// 25/24 Q1017 RE//
TNCM 160900Z 09014KT 9999 SCT016 28/23 Q1018 A3006 RMK LGT HZ ALQDS
TQPF 152300Z 08013KT 9999 FEW020 27/23 Q1017
TUPJ 160000Z 09007KT 10SM SCT019 28/24 A3006 RMK Q1018